sensor_id;sensor_type;location;lat;lon;timestamp;pressure;altitude;pressure_sealevel;temperature;humidity
10348;BME280;5220;43.192;23.284;2022-08-21T00:00:27;96376.25;;;22.42;76.59
10348;BME280;5220;43.192;23.284;2022-08-21T00:03:00;96372.38;;;22.38;76.80
10348;BME280;5220;43.192;23.284;2022-08-21T00:05:35;96369.09;;;22.36;76.75
10348;BME280;5220;43.192;23.284;2022-08-21T00:08:02;96374.00;;;22.39;76.38
10348;BME280;5220;43.192;23.284;2022-08-21T00:10:29;96381.16;;;22.45;77.02
10348;BME280;5220;43.192;23.284;2022-08-21T00:12:56;96376.06;;;22.44;75.83
10348;BME280;5220;43.192;23.284;2022-08-21T00:15:27;96371.34;;;22.39;75.26
10348;BME280;5220;43.192;23.284;2022-08-21T00:18:16;96371.34;;;22.39;76.21
10348;BME280;5220;43.192;23.284;2022-08-21T00:20:44;96366.03;;;22.39;76.89
10348;BME280;5220;43.192;23.284;2022-08-21T00:23:12;96363.41;;;22.46;77.32
10348;BME280;5220;43.192;23.284;2022-08-21T00:25:40;96364.66;;;22.50;76.82
10348;BME280;5220;43.192;23.284;2022-08-21T00:28:07;96358.72;;;22.41;76.92
10348;BME280;5220;43.192;23.284;2022-08-21T00:30:36;96363.63;;;22.44;77.06
10348;BME280;5220;43.192;23.284;2022-08-21T00:33:03;96368.13;;;22.50;76.82
10348;BME280;5220;43.192;23.284;2022-08-21T00:35:32;96369.97;;;22.57;76.45
10348;BME280;5220;43.192;23.284;2022-08-21T00:38:00;96366.69;;;22.61;76.11
10348;BME280;5220;43.192;23.284;2022-08-21T00:40:29;96368.81;;;22.66;75.88
10348;BME280;5220;43.192;23.284;2022-08-21T00:43:22;96370.66;;;22.72;75.94
10348;BME280;5220;43.192;23.284;2022-08-21T00:45:51;96365.13;;;22.73;75.40
10348;BME280;5220;43.192;23.284;2022-08-21T00:48:19;96372.88;;;22.75;74.89
10348;BME280;5220;43.192;23.284;2022-08-21T00:50:50;96370.44;;;22.73;75.40
10348;BME280;5220;43.192;23.284;2022-08-21T00:53:19;96369.63;;;22.73;75.64
10348;BME280;5220;43.192;23.284;2022-08-21T00:55:46;96375.53;;;22.75;75.73
10348;BME280;5220;43.192;23.284;2022-08-21T00:58:14;96375.72;;;22.73;76.15
10348;BME280;5220;43.192;23.284;2022-08-21T01:00:44;96382.25;;;22.71;74.82
10348;BME280;5220;43.192;23.284;2022-08-21T01:03:15;96385.88;;;22.57;74.25
10348;BME280;5220;43.192;23.284;2022-08-21T01:05:43;96378.72;;;22.50;74.79
10348;BME280;5220;43.192;23.284;2022-08-21T01:08:12;96378.72;;;22.50;74.67
10348;BME280;5220;43.192;23.284;2022-08-21T01:10:40;96378.06;;;22.42;74.35
10348;BME280;5220;43.192;23.284;2022-08-21T01:13:08;96378.28;;;22.40;75.17
10348;BME280;5220;43.192;23.284;2022-08-21T01:15:38;96382.19;;;22.44;75.18
10348;BME280;5220;43.192;23.284;2022-08-21T01:18:07;96386.25;;;22.47;75.27
10348;BME280;5220;43.192;23.284;2022-08-21T01:20:36;96382.38;;;22.49;74.96
10348;BME280;5220;43.192;23.284;2022-08-21T01:23:05;96370.72;;;22.31;73.72
10348;BME280;5220;43.192;23.284;2022-08-21T01:25:33;96380.50;;;22.30;73.39
10348;BME280;5220;43.192;23.284;2022-08-21T01:28:04;96389.06;;;22.26;73.91
10348;BME280;5220;43.192;23.284;2022-08-21T01:30:34;96395.09;;;22.13;74.71
10348;BME280;5220;43.192;23.284;2022-08-21T01:33:02;96401.97;;;22.01;75.35
10348;BME280;5220;43.192;23.284;2022-08-21T01:35:29;96397.91;;;22.05;76.10
10348;BME280;5220;43.192;23.284;2022-08-21T01:37:56;96401.19;;;22.07;76.48
10348;BME280;5220;43.192;23.284;2022-08-21T01:40:25;96399.81;;;22.18;76.47
10348;BME280;5220;43.192;23.284;2022-08-21T01:42:52;96391.47;;;22.27;76.15
10348;BME280;5220;43.192;23.284;2022-08-21T01:45:19;96391.91;;;22.31;75.51
10348;BME280;5220;43.192;23.284;2022-08-21T01:47:45;96396.78;;;22.27;75.54
10348;BME280;5220;43.192;23.284;2022-08-21T01:50:15;96393.13;;;22.28;75.93
10348;BME280;5220;43.192;23.284;2022-08-21T01:52:43;96387.63;;;22.30;75.96
10348;BME280;5220;43.192;23.284;2022-08-21T01:55:12;96394.13;;;22.27;76.23
10348;BME280;5220;43.192;23.284;2022-08-21T01:57:41;96387.81;;;22.28;75.87
10348;BME280;5220;43.192;23.284;2022-08-21T02:00:11;96393.13;;;22.28;76.04
10348;BME280;5220;43.192;23.284;2022-08-21T02:02:39;96392.09;;;22.29;75.52
10348;BME280;5220;43.192;23.284;2022-08-21T02:05:08;96388.22;;;22.25;74.77
10348;BME280;5220;43.192;23.284;2022-08-21T02:07:37;96384.13;;;22.16;74.57
10348;BME280;5220;43.192;23.284;2022-08-21T02:10:15;96389.81;;;22.13;75.15
10348;BME280;5220;43.192;23.284;2022-08-21T02:12:44;96388.16;;;22.12;74.79
10348;BME280;5220;43.192;23.284;2022-08-21T02:15:11;96391.59;;;22.06;74.72
10348;BME280;5220;43.192;23.284;2022-08-21T02:17:40;96402.38;;;21.98;74.66
10348;BME280;5220;43.192;23.284;2022-08-21T02:20:08;96393.19;;;21.94;75.56
10348;BME280;5220;43.192;23.284;2022-08-21T02:22:35;96397.22;;;21.90;75.42
10348;BME280;5220;43.192;23.284;2022-08-21T02:25:03;96388.63;;;21.88;75.40
10348;BME280;5220;43.192;23.284;2022-08-21T02:27:37;96391.09;;;21.89;75.81
10348;BME280;5220;43.192;23.284;2022-08-21T02:30:07;96390.31;;;21.95;74.96
10348;BME280;5220;43.192;23.284;2022-08-21T02:32:34;96395.81;;;21.94;73.67
10348;BME280;5220;43.192;23.284;2022-08-21T02:35:01;96387.38;;;21.84;74.17
10348;BME280;5220;43.192;23.284;2022-08-21T02:37:27;96379.41;;;21.77;74.24
10348;BME280;5220;43.192;23.284;2022-08-21T02:40:23;96382.59;;;21.66;74.63
10348;BME280;5220;43.192;23.284;2022-08-21T02:42:51;96377.75;;;21.70;75.00
10348;BME280;5220;43.192;23.284;2022-08-21T02:45:20;96377.69;;;21.63;74.36
10348;BME280;5220;43.192;23.284;2022-08-21T02:47:48;96390.25;;;21.55;74.51
10348;BME280;5220;43.192;23.284;2022-08-21T02:50:18;96395.88;;;21.17;75.18
10348;BME280;5220;43.192;23.284;2022-08-21T02:52:46;96402.59;;;20.99;76.02
10348;BME280;5220;43.192;23.284;2022-08-21T02:55:13;96395.31;;;21.01;77.15
10348;BME280;5220;43.192;23.284;2022-08-21T02:57:40;96389.44;;;21.05;77.31
10348;BME280;5220;43.192;23.284;2022-08-21T03:00:08;96380.72;;;21.05;77.39
10348;BME280;5220;43.192;23.284;2022-08-21T03:02:37;96396.53;;;21.19;77.21
10348;BME280;5220;43.192;23.284;2022-08-21T03:05:05;96390.69;;;21.30;76.76
10348;BME280;5220;43.192;23.284;2022-08-21T03:07:32;96392.81;;;21.41;76.54
10348;BME280;5220;43.192;23.284;2022-08-21T03:10:16;96394.88;;;21.46;76.71
10348;BME280;5220;43.192;23.284;2022-08-21T03:12:43;96397.97;;;21.50;76.58
10348;BME280;5220;43.192;23.284;2022-08-21T03:15:11;96399.59;;;21.51;76.34
10348;BME280;5220;43.192;23.284;2022-08-21T03:17:40;96402.47;;;21.56;76.09
10348;BME280;5220;43.192;23.284;2022-08-21T03:20:08;96393.53;;;21.57;75.61
10348;BME280;5220;43.192;23.284;2022-08-21T03:22:35;96392.09;;;21.54;75.44
10348;BME280;5220;43.192;23.284;2022-08-21T03:25:03;96395.16;;;21.58;75.15
10348;BME280;5220;43.192;23.284;2022-08-21T03:27:30;96398.66;;;21.65;74.86
10348;BME280;5220;43.192;23.284;2022-08-21T03:36:42;96398.19;;;21.27;74.60
10348;BME280;5220;43.192;23.284;2022-08-21T03:39:09;96397.66;;;21.10;75.17
10348;BME280;5220;43.192;23.284;2022-08-21T03:41:35;96397.81;;;20.87;76.00
10348;BME280;5220;43.192;23.284;2022-08-21T03:44:03;96407.88;;;20.77;76.72
10348;BME280;5220;43.192;23.284;2022-08-21T03:46:29;96408.13;;;20.61;77.15
10348;BME280;5220;43.192;23.284;2022-08-21T03:48:56;96412.72;;;20.53;77.53
10348;BME280;5220;43.192;23.284;2022-08-21T03:51:23;96413.38;;;20.55;78.42
10348;BME280;5220;43.192;23.284;2022-08-21T03:53:52;96411.34;;;20.57;78.31
10348;BME280;5220;43.192;23.284;2022-08-21T03:56:20;96400.63;;;20.65;78.36
10348;BME280;5220;43.192;23.284;2022-08-21T03:58:46;96416.06;;;20.61;78.35
10348;BME280;5220;43.192;23.284;2022-08-21T04:01:13;96396.88;;;20.74;78.18
10348;BME280;5220;43.192;23.284;2022-08-21T04:03:40;96401.03;;;20.83;77.52
10348;BME280;5220;43.192;23.284;2022-08-21T04:06:07;96401.09;;;20.89;77.43
10348;BME280;5220;43.192;23.284;2022-08-21T04:08:34;96403.63;;;20.98;77.26
10348;BME280;5220;43.192;23.284;2022-08-21T04:11:03;96399.78;;;21.00;76.70
10348;BME280;5220;43.192;23.284;2022-08-21T04:13:30;96410.59;;;21.05;76.84
10348;BME280;5220;43.192;23.284;2022-08-21T04:15:57;96402.88;;;21.04;76.37
10348;BME280;5220;43.192;23.284;2022-08-21T04:18:24;96403.69;;;21.04;76.17
10348;BME280;5220;43.192;23.284;2022-08-21T04:20:52;96405.28;;;21.05;76.36
10348;BME280;5220;43.192;23.284;2022-08-21T04:23:19;96406.13;;;21.06;76.62
10348;BME280;5220;43.192;23.284;2022-08-21T04:25:46;96401.75;;;21.13;77.03
10348;BME280;5220;43.192;23.284;2022-08-21T04:28:14;96395.47;;;21.20;76.80
10348;BME280;5220;43.192;23.284;2022-08-21T04:30:41;96390.25;;;21.27;76.14
10348;BME280;5220;43.192;23.284;2022-08-21T04:33:08;96390.06;;;21.28;75.66
10348;BME280;5220;43.192;23.284;2022-08-21T04:35:35;96391.03;;;21.21;75.94
10348;BME280;5220;43.192;23.284;2022-08-21T04:38:02;96395.13;;;21.23;76.13
10348;BME280;5220;43.192;23.284;2022-08-21T04:40:28;96383.72;;;21.23;75.82
10348;BME280;5220;43.192;23.284;2022-08-21T04:42:57;96389.41;;;21.20;76.13
10348;BME280;5220;43.192;23.284;2022-08-21T04:45:28;96392.84;;;21.20;76.11
10348;BME280;5220;43.192;23.284;2022-08-21T04:47:56;96391.78;;;21.15;76.67
10348;BME280;5220;43.192;23.284;2022-08-21T04:50:27;96385.44;;;21.09;76.66
10348;BME280;5220;43.192;23.284;2022-08-21T04:52:54;96387.53;;;21.14;76.47
10348;BME280;5220;43.192;23.284;2022-08-21T04:55:22;96385.94;;;21.19;76.21
10348;BME280;5220;43.192;23.284;2022-08-21T04:57:53;96383.22;;;21.13;76.20
10348;BME280;5220;43.192;23.284;2022-08-21T05:00:20;96381.31;;;21.07;76.59
10348;BME280;5220;43.192;23.284;2022-08-21T05:02:51;96380.50;;;21.06;77.46
10348;BME280;5220;43.192;23.284;2022-08-21T05:05:21;96380.50;;;21.06;77.66
10348;BME280;5220;43.192;23.284;2022-08-21T05:07:48;96379.16;;;21.10;77.92
10348;BME280;5220;43.192;23.284;2022-08-21T05:10:15;96386.94;;;21.18;77.85
10348;BME280;5220;43.192;23.284;2022-08-21T05:12:42;96389.03;;;21.23;78.45
10348;BME280;5220;43.192;23.284;2022-08-21T05:15:11;96388.88;;;21.31;78.47
10348;BME280;5220;43.192;23.284;2022-08-21T05:17:38;96381.59;;;21.39;78.62
10348;BME280;5220;43.192;23.284;2022-08-21T05:20:07;96382.28;;;21.48;78.37
10348;BME280;5220;43.192;23.284;2022-08-21T05:22:34;96379.03;;;21.53;78.43
10348;BME280;5220;43.192;23.284;2022-08-21T05:25:01;96377.66;;;21.57;78.54
10348;BME280;5220;43.192;23.284;2022-08-21T05:27:28;96372.00;;;21.66;78.52
10348;BME280;5220;43.192;23.284;2022-08-21T05:29:55;96368.75;;;21.71;78.92
10348;BME280;5220;43.192;23.284;2022-08-21T05:32:22;96363.06;;;21.74;78.94
10348;BME280;5220;43.192;23.284;2022-08-21T05:34:49;96361.91;;;21.83;79.17
10348;BME280;5220;43.192;23.284;2022-08-21T05:37:17;96359.13;;;21.91;78.90
10348;BME280;5220;43.192;23.284;2022-08-21T05:39:44;96359.97;;;21.91;79.01
10348;BME280;5220;43.192;23.284;2022-08-21T05:42:11;96355.50;;;21.98;79.01
10348;BME280;5220;43.192;23.284;2022-08-21T05:44:38;96356.75;;;22.03;79.42
10348;BME280;5220;43.192;23.284;2022-08-21T05:47:05;96353.91;;;22.11;79.63
10348;BME280;5220;43.192;23.284;2022-08-21T05:49:32;96354.97;;;22.16;79.63
10348;BME280;5220;43.192;23.284;2022-08-21T05:51:59;96357.41;;;22.18;79.08
10348;BME280;5220;43.192;23.284;2022-08-21T05:54:28;96346.22;;;22.22;79.72
10348;BME280;5220;43.192;23.284;2022-08-21T05:56:55;96345.63;;;22.27;79.98
10348;BME280;5220;43.192;23.284;2022-08-21T06:02:34;96343.81;;;22.40;78.32
10348;BME280;5220;43.192;23.284;2022-08-21T06:05:29;96344.44;;;22.42;78.45
10348;BME280;5220;43.192;23.284;2022-08-21T06:07:56;96348.34;;;22.53;77.52
10348;BME280;5220;43.192;23.284;2022-08-21T06:10:24;96340.00;;;22.56;77.79
10348;BME280;5220;43.192;23.284;2022-08-21T06:12:53;96344.47;;;22.62;76.51
10348;BME280;5220;43.192;23.284;2022-08-21T06:15:20;96340.22;;;22.68;76.30
10348;BME280;5220;43.192;23.284;2022-08-21T06:17:47;96338.19;;;22.76;75.59
10348;BME280;5220;43.192;23.284;2022-08-21T06:20:14;96337.81;;;22.86;76.03
10348;BME280;5220;43.192;23.284;2022-08-21T06:22:40;96335.56;;;22.96;74.60
10348;BME280;5220;43.192;23.284;2022-08-21T06:25:08;96339.47;;;23.00;75.17
10348;BME280;5220;43.192;23.284;2022-08-21T06:27:37;96341.91;;;23.08;74.65
10348;BME280;5220;43.192;23.284;2022-08-21T06:30:13;96342.50;;;23.17;75.15
10348;BME280;5220;43.192;23.284;2022-08-21T06:32:40;96348.44;;;23.19;75.10
10348;BME280;5220;43.192;23.284;2022-08-21T06:35:08;96351.69;;;23.14;76.46
10348;BME280;5220;43.192;23.284;2022-08-21T06:37:35;96356.81;;;23.09;76.08
10348;BME280;5220;43.192;23.284;2022-08-21T06:40:13;96363.53;;;23.31;74.15
10348;BME280;5220;43.192;23.284;2022-08-21T06:42:42;96357.00;;;23.34;73.82
10348;BME280;5220;43.192;23.284;2022-08-21T06:45:09;96352.94;;;23.44;74.37
10348;BME280;5220;43.192;23.284;2022-08-21T06:47:35;96353.13;;;23.49;75.45
10348;BME280;5220;43.192;23.284;2022-08-21T06:53:13;96349.63;;;23.69;70.53
10348;BME280;5220;43.192;23.284;2022-08-21T06:55:41;96361.91;;;23.63;71.73
10348;BME280;5220;43.192;23.284;2022-08-21T06:58:10;96359.00;;;23.71;72.34
10348;BME280;5220;43.192;23.284;2022-08-21T07:00:39;96364.72;;;23.68;72.82
10348;BME280;5220;43.192;23.284;2022-08-21T07:03:06;96363.88;;;23.81;73.85
10348;BME280;5220;43.192;23.284;2022-08-21T07:05:33;96363.88;;;23.87;73.54
10348;BME280;5220;43.192;23.284;2022-08-21T07:08:00;96369.97;;;23.94;73.32
10348;BME280;5220;43.192;23.284;2022-08-21T07:10:27;96362.38;;;23.98;72.42
10348;BME280;5220;43.192;23.284;2022-08-21T07:12:54;96363.00;;;24.00;70.06
10348;BME280;5220;43.192;23.284;2022-08-21T07:15:22;96370.16;;;24.06;70.83
10348;BME280;5220;43.192;23.284;2022-08-21T07:17:49;96373.41;;;24.08;71.12
10348;BME280;5220;43.192;23.284;2022-08-21T07:20:16;96369.91;;;24.07;69.79
10348;BME280;5220;43.192;23.284;2022-08-21T07:22:43;96370.34;;;24.11;70.33
10348;BME280;5220;43.192;23.284;2022-08-21T07:25:10;96368.28;;;24.13;70.02
10348;BME280;5220;43.192;23.284;2022-08-21T07:27:37;96366.84;;;24.10;70.09
10348;BME280;5220;43.192;23.284;2022-08-21T07:33:13;96369.94;;;24.14;70.62
10348;BME280;5220;43.192;23.284;2022-08-21T07:35:40;96379.75;;;24.14;71.27
10348;BME280;5220;43.192;23.284;2022-08-21T07:38:06;96376.25;;;24.20;71.56
10348;BME280;5220;43.192;23.284;2022-08-21T07:40:33;96373.38;;;24.21;70.79
10348;BME280;5220;43.192;23.284;2022-08-21T07:43:00;96367.66;;;24.24;70.52
10348;BME280;5220;43.192;23.284;2022-08-21T07:45:27;96373.97;;;24.30;71.04
10348;BME280;5220;43.192;23.284;2022-08-21T07:47:54;96376.84;;;24.28;70.87
10348;BME280;5220;43.192;23.284;2022-08-21T07:50:22;96373.38;;;24.28;70.80
10348;BME280;5220;43.192;23.284;2022-08-21T07:52:49;96378.03;;;24.32;70.57
10348;BME280;5220;43.192;23.284;2022-08-21T07:55:18;96377.19;;;24.38;71.56
10348;BME280;5220;43.192;23.284;2022-08-21T07:57:46;96364.47;;;24.47;71.43
10348;BME280;5220;43.192;23.284;2022-08-21T08:00:16;96368.75;;;24.48;70.56
10348;BME280;5220;43.192;23.284;2022-08-21T08:02:46;96375.88;;;24.54;69.74
10348;BME280;5220;43.192;23.284;2022-08-21T08:05:15;96375.06;;;24.53;69.35
10348;BME280;5220;43.192;23.284;2022-08-21T08:07:44;96373.84;;;24.56;70.00
10348;BME280;5220;43.192;23.284;2022-08-21T08:10:11;96380.78;;;24.57;70.12
10348;BME280;5220;43.192;23.284;2022-08-21T08:12:40;96381.78;;;24.63;70.55
10348;BME280;5220;43.192;23.284;2022-08-21T08:15:10;96368.47;;;24.63;70.33
10348;BME280;5220;43.192;23.284;2022-08-21T08:17:38;96374.78;;;24.68;70.64
10348;BME280;5220;43.192;23.284;2022-08-21T08:20:24;96371.69;;;24.71;69.14
10348;BME280;5220;43.192;23.284;2022-08-21T08:22:53;96370.03;;;24.77;69.61
10348;BME280;5220;43.192;23.284;2022-08-21T08:25:21;96363.69;;;24.78;69.50
10348;BME280;5220;43.192;23.284;2022-08-21T08:27:48;96364.09;;;24.75;69.32
10348;BME280;5220;43.192;23.284;2022-08-21T08:30:17;96364.31;;;24.73;68.69
10348;BME280;5220;43.192;23.284;2022-08-21T08:32:45;96359.78;;;24.80;68.62
10348;BME280;5220;43.192;23.284;2022-08-21T08:35:12;96365.09;;;24.87;68.53
10348;BME280;5220;43.192;23.284;2022-08-21T08:37:40;96354.59;;;24.92;67.64
10348;BME280;5220;43.192;23.284;2022-08-21T08:40:12;96357.78;;;24.69;69.59
10348;BME280;5220;43.192;23.284;2022-08-21T08:42:40;96349.94;;;24.87;69.13
10348;BME280;5220;43.192;23.284;2022-08-21T08:45:09;96349.19;;;25.05;68.46
10348;BME280;5220;43.192;23.284;2022-08-21T08:47:57;96341.28;;;25.17;67.78
10348;BME280;5220;43.192;23.284;2022-08-21T08:50:39;96341.25;;;25.23;66.29
10348;BME280;5220;43.192;23.284;2022-08-21T08:53:10;96346.66;;;25.35;65.09
10348;BME280;5220;43.192;23.284;2022-08-21T08:55:43;96339.88;;;25.39;64.67
10348;BME280;5220;43.192;23.284;2022-08-21T08:58:22;96338.41;;;25.43;67.37
10348;BME280;5220;43.192;23.284;2022-08-21T09:00:51;96337.19;;;25.63;65.79
10348;BME280;5220;43.192;23.284;2022-08-21T09:03:18;96342.03;;;25.73;66.16
10348;BME280;5220;43.192;23.284;2022-08-21T09:05:48;96348.97;;;25.74;64.98
10348;BME280;5220;43.192;23.284;2022-08-21T09:08:32;96343.78;;;25.79;64.69
10348;BME280;5220;43.192;23.284;2022-08-21T09:11:30;96338.25;;;25.81;64.13
10348;BME280;5220;43.192;23.284;2022-08-21T09:14:07;96338.19;;;25.87;64.71
10348;BME280;5220;43.192;23.284;2022-08-21T09:16:42;96339.78;;;25.88;66.04
10348;BME280;5220;43.192;23.284;2022-08-21T09:19:30;96339.59;;;25.90;62.87
10348;BME280;5220;43.192;23.284;2022-08-21T09:22:09;96321.22;;;25.82;62.82
10348;BME280;5220;43.192;23.284;2022-08-21T09:24:45;96315.00;;;25.88;63.29
10348;BME280;5220;43.192;23.284;2022-08-21T09:27:17;96315.00;;;26.06;63.70
10348;BME280;5220;43.192;23.284;2022-08-21T09:29:46;96314.63;;;26.02;62.35
10348;BME280;5220;43.192;23.284;2022-08-21T09:32:18;96312.34;;;26.06;61.44
10348;BME280;5220;43.192;23.284;2022-08-21T09:34:57;96314.31;;;26.10;61.97
10348;BME280;5220;43.192;23.284;2022-08-21T09:37:25;96305.00;;;26.19;62.42
10348;BME280;5220;43.192;23.284;2022-08-21T09:40:02;96304.78;;;26.21;61.99
10348;BME280;5220;43.192;23.284;2022-08-21T09:42:32;96305.50;;;26.10;62.36
10348;BME280;5220;43.192;23.284;2022-08-21T09:45:12;96302.00;;;26.09;62.30
10348;BME280;5220;43.192;23.284;2022-08-21T09:47:40;96301.66;;;26.24;62.92
10348;BME280;5220;43.192;23.284;2022-08-21T09:50:12;96302.47;;;26.25;61.68
10348;BME280;5220;43.192;23.284;2022-08-21T09:52:48;96300.59;;;26.25;61.24
10348;BME280;5220;43.192;23.284;2022-08-21T09:55:19;96298.66;;;26.32;62.33
10348;BME280;5220;43.192;23.284;2022-08-21T09:58:06;96299.13;;;26.29;61.58
10348;BME280;5220;43.192;23.284;2022-08-21T10:00:35;96299.44;;;26.21;59.22
10348;BME280;5220;43.192;23.284;2022-08-21T10:03:10;96295.09;;;26.38;61.20
10348;BME280;5220;43.192;23.284;2022-08-21T10:05:38;96288.41;;;26.47;60.82
10348;BME280;5220;43.192;23.284;2022-08-21T10:08:16;96285.88;;;26.52;60.58
10348;BME280;5220;43.192;23.284;2022-08-21T10:10:43;96281.25;;;26.59;60.24
10348;BME280;5220;43.192;23.284;2022-08-21T10:13:14;96280.09;;;26.67;61.61
10348;BME280;5220;43.192;23.284;2022-08-21T10:15:47;96270.19;;;26.86;61.44
10348;BME280;5220;43.192;23.284;2022-08-21T10:18:21;96278.81;;;26.99;60.45
10348;BME280;5220;43.192;23.284;2022-08-21T10:20:56;96276.81;;;26.95;61.39
10348;BME280;5220;43.192;23.284;2022-08-21T10:23:39;96277.38;;;26.97;60.22
10348;BME280;5220;43.192;23.284;2022-08-21T10:26:19;96276.72;;;27.01;60.10
10348;BME280;5220;43.192;23.284;2022-08-21T10:29:09;96274.16;;;26.95;61.05
10348;BME280;5220;43.192;23.284;2022-08-21T10:31:46;96279.03;;;26.98;61.56
10348;BME280;5220;43.192;23.284;2022-08-21T10:34:28;96280.06;;;26.85;62.11
10348;BME280;5220;43.192;23.284;2022-08-21T10:37:07;96278.47;;;26.66;62.21
10348;BME280;5220;43.192;23.284;2022-08-21T10:39:47;96281.19;;;26.78;61.77
10348;BME280;5220;43.192;23.284;2022-08-21T10:42:29;96269.44;;;26.79;60.96
10348;BME280;5220;43.192;23.284;2022-08-21T10:45:10;96273.75;;;26.80;60.67
10348;BME280;5220;43.192;23.284;2022-08-21T10:47:45;96264.09;;;26.67;61.92
10348;BME280;5220;43.192;23.284;2022-08-21T10:50:19;96259.72;;;26.84;61.66
10348;BME280;5220;43.192;23.284;2022-08-21T10:52:59;96256.97;;;26.91;60.58
10348;BME280;5220;43.192;23.284;2022-08-21T10:55:32;96255.53;;;26.77;60.79
10348;BME280;5220;43.192;23.284;2022-08-21T10:58:04;96255.06;;;26.80;61.64
10348;BME280;5220;43.192;23.284;2022-08-21T11:00:40;96249.88;;;26.85;60.74
10348;BME280;5220;43.192;23.284;2022-08-21T11:03:13;96246.50;;;26.78;60.73
10348;BME280;5220;43.192;23.284;2022-08-21T11:05:47;96236.72;;;26.71;60.73
10348;BME280;5220;43.192;23.284;2022-08-21T11:08:21;96243.69;;;26.72;60.42
10348;BME280;5220;43.192;23.284;2022-08-21T11:10:52;96253.44;;;26.79;61.21
10348;BME280;5220;43.192;23.284;2022-08-21T11:13:26;96245.44;;;26.79;60.30
10348;BME280;5220;43.192;23.284;2022-08-21T11:16:02;96243.38;;;26.81;60.66
10348;BME280;5220;43.192;23.284;2022-08-21T11:22:17;96240.25;;;26.95;60.39
10348;BME280;5220;43.192;23.284;2022-08-21T11:24:50;96218.91;;;26.95;60.76
10348;BME280;5220;43.192;23.284;2022-08-21T11:27:24;96214.84;;;27.04;61.80
10348;BME280;5220;43.192;23.284;2022-08-21T11:30:14;96217.50;;;26.93;60.06
10348;BME280;5220;43.192;23.284;2022-08-21T11:36:10;96204.03;;;27.22;61.25
10348;BME280;5220;43.192;23.284;2022-08-21T11:38:57;96205.53;;;27.30;60.73
10348;BME280;5220;43.192;23.284;2022-08-21T11:44:39;96196.78;;;27.46;60.72
10348;BME280;5220;43.192;23.284;2022-08-21T11:47:15;96190.41;;;27.47;60.33
10348;BME280;5220;43.192;23.284;2022-08-21T11:50:18;96190.41;;;27.47;59.12
10348;BME280;5220;43.192;23.284;2022-08-21T11:52:50;96193.91;;;27.24;58.88
10348;BME280;5220;43.192;23.284;2022-08-21T11:55:23;96180.28;;;27.49;58.50
10348;BME280;5220;43.192;23.284;2022-08-21T11:57:55;96177.25;;;27.57;58.96
10348;BME280;5220;43.192;23.284;2022-08-21T12:00:28;96174.81;;;27.67;59.18
10348;BME280;5220;43.192;23.284;2022-08-21T12:06:28;96170.44;;;27.78;57.30
10348;BME280;5220;43.192;23.284;2022-08-21T12:09:00;96170.97;;;27.92;57.39
10348;BME280;5220;43.192;23.284;2022-08-21T12:11:27;96169.34;;;27.91;57.08
10348;BME280;5220;43.192;23.284;2022-08-21T12:14:11;96156.56;;;27.93;56.27
10348;BME280;5220;43.192;23.284;2022-08-21T12:16:40;96156.31;;;27.94;56.39
10348;BME280;5220;43.192;23.284;2022-08-21T12:22:19;96151.38;;;27.86;56.44
10348;BME280;5220;43.192;23.284;2022-08-21T12:24:48;96158.31;;;27.87;57.30
10348;BME280;5220;43.192;23.284;2022-08-21T12:27:23;96147.53;;;27.82;57.48
10348;BME280;5220;43.192;23.284;2022-08-21T12:36:54;96157.94;;;27.95;56.66
10348;BME280;5220;43.192;23.284;2022-08-21T12:39:29;96170.25;;;28.08;56.73
10348;BME280;5220;43.192;23.284;2022-08-21T12:45:23;96159.53;;;28.08;55.90
10348;BME280;5220;43.192;23.284;2022-08-21T12:47:57;96158.72;;;28.07;56.00
10348;BME280;5220;43.192;23.284;2022-08-21T12:50:49;96147.56;;;28.10;56.45
10348;BME280;5220;43.192;23.284;2022-08-21T12:53:25;96157.44;;;28.10;55.86
10348;BME280;5220;43.192;23.284;2022-08-21T12:59:15;96157.69;;;28.08;56.43
10348;BME280;5220;43.192;23.284;2022-08-21T13:01:48;96146.03;;;28.03;56.56
10348;BME280;5220;43.192;23.284;2022-08-21T13:04:19;96165.38;;;28.05;56.89
10348;BME280;5220;43.192;23.284;2022-08-21T13:10:26;96150.75;;;27.96;57.89
10348;BME280;5220;43.192;23.284;2022-08-21T13:12:56;96143.69;;;27.90;57.51
10348;BME280;5220;43.192;23.284;2022-08-21T13:15:39;96146.50;;;27.83;57.70
10348;BME280;5220;43.192;23.284;2022-08-21T13:18:22;96153.84;;;27.76;57.83
10348;BME280;5220;43.192;23.284;2022-08-21T13:24:32;96154.31;;;27.73;57.40
10348;BME280;5220;43.192;23.284;2022-08-21T13:27:00;96152.22;;;27.75;56.99
10348;BME280;5220;43.192;23.284;2022-08-21T13:29:47;96152.56;;;27.78;57.93
10348;BME280;5220;43.192;23.284;2022-08-21T13:32:20;96153.28;;;27.74;57.58
10348;BME280;5220;43.192;23.284;2022-08-21T13:34:51;96152.56;;;27.78;58.22
10348;BME280;5220;43.192;23.284;2022-08-21T13:37:32;96147.00;;;27.68;59.10
10348;BME280;5220;43.192;23.284;2022-08-21T13:40:16;96139.00;;;27.68;59.75
10348;BME280;5220;43.192;23.284;2022-08-21T13:42:47;96134.25;;;27.59;59.39
10348;BME280;5220;43.192;23.284;2022-08-21T13:45:18;96136.94;;;27.59;60.32
10348;BME280;5220;43.192;23.284;2022-08-21T13:47:48;96130.88;;;27.63;60.42
10348;BME280;5220;43.192;23.284;2022-08-21T13:50:38;96127.16;;;27.64;61.41
10348;BME280;5220;43.192;23.284;2022-08-21T13:53:18;96122.59;;;27.48;61.33
10348;BME280;5220;43.192;23.284;2022-08-21T13:55:46;96124.31;;;27.54;61.71
10348;BME280;5220;43.192;23.284;2022-08-21T13:58:12;96123.25;;;27.55;61.83
10348;BME280;5220;43.192;23.284;2022-08-21T14:00:50;96115.72;;;27.52;61.56
10348;BME280;5220;43.192;23.284;2022-08-21T14:03:34;96118.41;;;27.52;62.51
10348;BME280;5220;43.192;23.284;2022-08-21T14:06:18;96116.16;;;27.49;62.85
10348;BME280;5220;43.192;23.284;2022-08-21T14:08:51;96120.13;;;27.47;63.09
10348;BME280;5220;43.192;23.284;2022-08-21T14:11:24;96116.91;;;27.33;61.51
10348;BME280;5220;43.192;23.284;2022-08-21T14:13:58;96119.59;;;27.33;61.43